Time;durP1;ratioP1;P1;durP2;ratioP2;P2;SDS_P1;SDS_P2;PMS_P1;PMS_P2;Temp;Humidity;BMP_temperature;BMP_pressure;BME280_temperature;BME280_humidity;BME280_pressure;Samples;Min_cycle;Max_cycle;Signal;HPM_P1;HPM_P2
2023/08/23 00:00:10;;;;;;;1.35;0.32;;;23.70;84.50;;;;;;5095148;28;20032;-85
2023/08/23 00:02:36;;;;;;;1.83;0.68;;;23.70;84.60;;;;;;5095033;28;20028;-84
2023/08/23 00:05:02;;;;;;;1.88;0.60;;;23.70;84.60;;;;;;5094965;28;20035;-84
2023/08/23 00:07:27;;;;;;;1.67;0.60;;;23.70;84.70;;;;;;5094716;28;20028;-84
2023/08/23 00:09:53;;;;;;;1.55;0.40;;;23.70;84.80;;;;;;5094517;28;20028;-84
2023/08/23 00:12:19;;;;;;;1.92;0.50;;;23.70;84.80;;;;;;5093063;28;20488;-84
2023/08/23 00:14:44;;;;;;;1.92;0.35;;;23.70;84.80;;;;;;5094945;28;20032;-85
2023/08/23 00:17:10;;;;;;;1.08;0.43;;;23.60;84.80;;;;;;5094836;28;20043;-85
2023/08/23 00:19:36;;;;;;;1.02;0.43;;;23.70;84.90;;;;;;5093160;28;20077;-85
2023/08/23 00:22:02;;;;;;;1.40;0.60;;;23.70;84.90;;;;;;5094717;28;20025;-85
2023/08/23 00:24:28;;;;;;;1.77;0.50;;;23.70;84.90;;;;;;5094633;28;20040;-84
2023/08/23 00:26:55;;;;;;;2.00;0.45;;;23.60;84.90;;;;;;5093403;28;20036;-84
2023/08/23 00:29:20;;;;;;;2.05;0.77;;;23.60;84.90;;;;;;5094656;28;20077;-84
2023/08/23 00:31:46;;;;;;;2.97;0.88;;;23.60;85.00;;;;;;5094593;28;20028;-85
2023/08/23 00:34:12;;;;;;;1.85;0.60;;;23.60;85.10;;;;;;5094534;28;20097;-85
2023/08/23 00:36:37;;;;;;;2.25;0.73;;;23.60;85.20;;;;;;5094459;28;20028;-85
2023/08/23 00:39:03;;;;;;;2.55;0.70;;;23.60;85.10;;;;;;5076744;28;20427;-85
2023/08/23 00:41:28;;;;;;;2.55;0.75;;;23.60;85.20;;;;;;5092772;28;20028;-85
2023/08/23 00:43:54;;;;;;;2.70;0.40;;;23.60;85.10;;;;;;5094241;28;20040;-85
2023/08/23 00:46:21;;;;;;;2.05;0.63;;;23.60;85.10;;;;;;5094574;28;20469;-85
2023/08/23 00:48:48;;;;;;;1.92;0.80;;;23.60;85.10;;;;;;5093210;28;20044;-85
2023/08/23 00:51:14;;;;;;;3.25;0.82;;;23.60;85.00;;;;;;5094081;28;20024;-85
2023/08/23 00:53:40;;;;;;;3.42;0.77;;;23.50;85.20;;;;;;5094565;28;20380;-84
2023/08/23 00:56:05;;;;;;;2.13;0.80;;;23.50;85.30;;;;;;5093757;28;20076;-84
2023/08/23 00:58:32;;;;;;;2.83;0.70;;;23.50;85.40;;;;;;5093958;28;20042;-85
2023/08/23 01:00:59;;;;;;;0.95;0.60;;;23.50;85.40;;;;;;5093965;28;20362;-84
2023/08/23 01:03:25;;;;;;;1.42;0.80;;;23.50;85.40;;;;;;5075985;28;20039;-85
2023/08/23 01:06:00;;;;;;;1.63;0.68;;;23.50;85.40;;;;;;5092767;28;20044;-85
2023/08/23 01:08:42;;;;;;;2.47;0.80;;;23.50;85.30;;;;;;5093888;28;20028;-84
2023/08/23 01:11:27;;;;;;;1.90;0.77;;;23.50;85.40;;;;;;5093249;28;20044;-84
2023/08/23 01:14:03;;;;;;;1.10;0.85;;;23.50;85.30;;;;;;5092907;28;20040;-85
2023/08/23 01:16:32;;;;;;;1.85;0.80;;;23.50;85.30;;;;;;5093141;28;20070;-83
2023/08/23 01:19:01;;;;;;;2.10;0.80;;;23.50;85.40;;;;;;5093275;28;20341;-85
2023/08/23 01:21:36;;;;;;;2.05;0.70;;;23.50;85.30;;;;;;5092611;28;20469;-85
2023/08/23 01:24:08;;;;;;;1.23;0.80;;;23.50;85.50;;;;;;5092652;28;20093;-85
2023/08/23 01:26:43;;;;;;;1.85;0.90;;;23.50;85.40;;;;;;5091410;28;20036;-85
2023/08/23 01:29:08;;;;;;;1.58;0.77;;;23.40;85.30;;;;;;5093051;28;20030;-85
2023/08/23 01:31:42;;;;;;;1.00;0.43;;;23.40;85.40;;;;;;5092794;28;20024;-85
2023/08/23 01:34:35;;;;;;;1.95;0.52;;;23.40;85.50;;;;;;5091612;28;20039;-85
2023/08/23 01:37:03;;;;;;;1.33;0.75;;;23.50;85.60;;;;;;5089213;28;20050;-85
2023/08/23 01:39:30;;;;;;;2.38;0.93;;;23.40;85.60;;;;;;5091586;28;20028;-85
2023/08/23 01:41:56;;;;;;;1.73;0.75;;;23.40;85.60;;;;;;5074261;28;20152;-85
2023/08/23 01:44:22;;;;;;;2.17;0.80;;;23.40;85.70;;;;;;5092627;28;20115;-85
2023/08/23 01:46:47;;;;;;;1.60;0.98;;;23.40;85.80;;;;;;5091884;28;20446;-85
2023/08/23 01:49:13;;;;;;;2.38;0.98;;;23.40;85.80;;;;;;5093048;28;20329;-84
2023/08/23 01:51:39;;;;;;;2.00;0.75;;;23.40;85.70;;;;;;5092393;28;20016;-85
2023/08/23 01:54:04;;;;;;;1.63;0.95;;;23.40;85.80;;;;;;5091084;28;20032;-85
2023/08/23 01:56:30;;;;;;;2.03;0.80;;;23.40;85.80;;;;;;5091550;28;20098;-85
2023/08/23 01:58:55;;;;;;;0.95;0.73;;;23.40;85.80;;;;;;5091298;28;20031;-84
2023/08/23 02:01:21;;;;;;;2.63;1.00;;;23.40;85.80;;;;;;5092273;28;20035;-85
2023/08/23 02:03:47;;;;;;;3.10;1.08;;;23.40;85.80;;;;;;5093354;28;20111;-84
2023/08/23 02:06:12;;;;;;;1.63;0.80;;;23.40;85.80;;;;;;5096874;28;20036;-85
2023/08/23 02:08:38;;;;;;;1.80;0.90;;;23.30;85.80;;;;;;5095216;28;20086;-85
2023/08/23 02:11:04;;;;;;;2.30;1.10;;;23.30;85.90;;;;;;5077458;28;20151;-85
2023/08/23 02:13:29;;;;;;;2.33;1.05;;;23.30;86.00;;;;;;5097166;28;20032;-84
2023/08/23 02:15:55;;;;;;;2.17;1.00;;;23.30;86.00;;;;;;5097525;28;20478;-85
2023/08/23 02:18:21;;;;;;;2.67;1.13;;;23.20;86.10;;;;;;5097178;28;20522;-85
2023/08/23 02:20:58;;;;;;;1.92;1.23;;;23.20;86.10;;;;;;5096337;28;20024;-85
2023/08/23 02:23:24;;;;;;;2.10;0.98;;;23.20;86.20;;;;;;5097789;28;20066;-84
2023/08/23 02:25:51;;;;;;;1.55;0.98;;;23.20;86.20;;;;;;5097614;28;20085;-84
2023/08/23 02:28:17;;;;;;;1.73;1.13;;;23.20;86.30;;;;;;5095967;28;20031;-84
2023/08/23 02:30:43;;;;;;;2.05;1.10;;;23.20;86.20;;;;;;5097364;28;20024;-84
2023/08/23 02:33:08;;;;;;;1.73;1.00;;;23.20;86.30;;;;;;5097246;28;20039;-87
2023/08/23 02:35:34;;;;;;;1.40;0.88;;;23.20;86.30;;;;;;5095984;28;20025;-85
2023/08/23 02:38:01;;;;;;;2.00;1.00;;;23.10;86.40;;;;;;5097085;28;20093;-84
2023/08/23 02:40:27;;;;;;;1.60;0.90;;;23.10;86.50;;;;;;5096821;28;20028;-85
2023/08/23 02:42:55;;;;;;;2.30;1.00;;;23.10;86.40;;;;;;5097157;28;20487;-85
2023/08/23 02:45:21;;;;;;;1.02;0.60;;;23.10;86.40;;;;;;5096618;28;20054;-85
2023/08/23 02:47:47;;;;;;;1.48;0.60;;;23.00;86.50;;;;;;5096627;28;20488;-85
2023/08/23 02:50:12;;;;;;;1.80;0.85;;;23.00;86.50;;;;;;5096685;28;20028;-85
2023/08/23 02:52:38;;;;;;;1.40;0.70;;;23.00;86.60;;;;;;5095685;28;20032;-84
2023/08/23 02:55:04;;;;;;;2.22;0.75;;;23.00;86.70;;;;;;5097105;28;20071;-85
2023/08/23 02:57:30;;;;;;;2.65;1.33;;;23.00;86.70;;;;;;5095218;28;20472;-85
2023/08/23 02:59:55;;;;;;;1.88;0.68;;;23.00;86.70;;;;;;5095207;28;20032;-85
2023/08/23 03:02:21;;;;;;;1.42;0.77;;;22.90;86.70;;;;;;5095057;28;20061;-85
2023/08/23 03:04:46;;;;;;;0.95;0.70;;;22.90;86.90;;;;;;5096530;28;20032;-84
2023/08/23 03:07:12;;;;;;;1.67;0.80;;;22.80;86.90;;;;;;5096517;28;20176;-84
2023/08/23 03:09:39;;;;;;;1.30;0.60;;;22.80;87.10;;;;;;5096528;28;20483;-84
2023/08/23 03:12:05;;;;;;;1.20;0.52;;;22.80;87.20;;;;;;5094009;28;20063;-84
2023/08/23 03:14:30;;;;;;;1.50;0.50;;;22.80;87.20;;;;;;5095928;28;20040;-85
2023/08/23 03:16:56;;;;;;;1.30;0.70;;;22.80;87.30;;;;;;5095316;28;20404;-84
2023/08/23 03:19:22;;;;;;;2.03;1.00;;;22.90;87.30;;;;;;5096283;28;20040;-84
2023/08/23 03:21:47;;;;;;;2.15;0.75;;;22.80;87.00;;;;;;5096324;28;20031;-84
2023/08/23 03:24:13;;;;;;;1.17;0.50;;;22.80;87.00;;;;;;5094980;28;20038;-84
2023/08/23 03:26:38;;;;;;;1.15;0.45;;;22.80;87.10;;;;;;5096412;28;20393;-84
2023/08/23 03:29:04;;;;;;;1.15;0.50;;;22.80;87.30;;;;;;5096352;28;20032;-85
2023/08/23 03:31:29;;;;;;;1.30;0.50;;;22.80;87.40;;;;;;5096273;28;20032;-84
2023/08/23 03:33:55;;;;;;;1.70;0.68;;;22.80;87.50;;;;;;5096243;28;20107;-85
2023/08/23 03:36:22;;;;;;;1.30;0.50;;;22.80;87.50;;;;;;5095980;28;20036;-84
2023/08/23 03:38:47;;;;;;;1.30;0.55;;;22.80;87.60;;;;;;5095979;28;20024;-84
2023/08/23 03:41:14;;;;;;;1.40;0.68;;;22.90;87.50;;;;;;5095475;28;20033;-84
2023/08/23 03:43:40;;;;;;;1.10;0.80;;;22.80;87.20;;;;;;5095487;28;20040;-83
2023/08/23 03:46:06;;;;;;;1.27;0.50;;;22.90;87.30;;;;;;5111327;28;20028;-89
2023/08/23 03:48:31;;;;;;;1.00;0.40;;;22.90;87.40;;;;;;5115843;28;20028;-89
2023/08/23 03:51:00;;;;;;;1.40;0.77;;;22.90;87.40;;;;;;5117469;28;20032;-90
2023/08/23 03:53:29;;;;;;;1.50;0.50;;;22.90;87.40;;;;;;5115323;28;20040;-89
2023/08/23 03:55:54;;;;;;;1.40;0.63;;;22.90;87.30;;;;;;5115048;28;20028;-90
2023/08/23 03:58:21;;;;;;;1.02;0.38;;;22.90;87.30;;;;;;5108323;28;20077;-90
2023/08/23 04:00:52;;;;;;;0.70;0.40;;;22.90;87.30;;;;;;5111219;28;20024;-90
2023/08/23 04:03:17;;;;;;;1.02;0.50;;;22.90;87.40;;;;;;5115239;28;20484;-90
2023/08/23 04:05:43;;;;;;;1.80;0.50;;;22.90;87.30;;;;;;5108250;28;20028;-89
2023/08/23 04:08:09;;;;;;;1.10;0.32;;;22.90;87.30;;;;;;5110126;28;20039;-87
2023/08/23 04:10:35;;;;;;;0.88;0.40;;;22.90;87.40;;;;;;5111415;28;20425;-88
2023/08/23 04:13:01;;;;;;;2.85;0.57;;;22.90;87.50;;;;;;5114809;28;20036;-90
2023/08/23 04:15:27;;;;;;;0.77;0.57;;;22.90;87.50;;;;;;5116496;28;20008;-89
2023/08/23 04:17:52;;;;;;;2.17;0.63;;;22.80;87.40;;;;;;5108285;28;20024;-89
2023/08/23 04:20:18;;;;;;;2.08;0.60;;;22.90;87.40;;;;;;5112800;28;20027;-90
2023/08/23 04:22:44;;;;;;;1.20;0.40;;;22.80;87.30;;;;;;5113681;28;20103;-91
2023/08/23 04:25:10;;;;;;;1.90;0.45;;;22.80;87.50;;;;;;5107573;28;20109;-92
2023/08/23 04:27:36;;;;;;;1.10;0.40;;;22.80;87.70;;;;;;5109019;28;20024;-92
2023/08/23 04:30:03;;;;;;;1.52;0.68;;;22.80;87.70;;;;;;5108957;28;20124;-91
2023/08/23 04:32:28;;;;;;;0.93;0.50;;;22.80;87.80;;;;;;5111844;28;20049;-90
2023/08/23 04:34:54;;;;;;;0.63;0.25;;;22.80;87.80;;;;;;5111350;28;20052;-91
2023/08/23 04:37:19;;;;;;;1.25;0.70;;;22.80;87.90;;;;;;5109473;28;20036;-92
2023/08/23 04:39:46;;;;;;;1.05;0.63;;;22.80;87.90;;;;;;5105178;28;20024;-92
2023/08/23 04:42:12;;;;;;;0.70;0.40;;;22.80;87.80;;;;;;5105171;28;20024;-90
2023/08/23 04:44:38;;;;;;;1.48;0.80;;;22.80;87.80;;;;;;5104713;28;20039;-92
2023/08/23 04:47:03;;;;;;;1.05;0.60;;;22.80;87.80;;;;;;5102370;28;20040;-92
2023/08/23 04:49:29;;;;;;;1.17;0.68;;;22.70;87.80;;;;;;5102452;28;20063;-92
2023/08/23 04:51:54;;;;;;;0.82;0.57;;;22.70;88.00;;;;;;5103342;28;20111;-92
2023/08/23 04:54:20;;;;;;;1.73;1.08;;;22.60;88.20;;;;;;5105105;28;20096;-92
2023/08/23 04:56:46;;;;;;;2.30;0.60;;;22.60;88.30;;;;;;5103409;28;20032;-92
2023/08/23 04:59:12;;;;;;;2.60;1.38;;;22.60;88.40;;;;;;5104747;28;20047;-92
2023/08/23 05:01:37;;;;;;;1.20;0.65;;;22.60;88.20;;;;;;5106518;28;20024;-91
2023/08/23 05:04:03;;;;;;;1.70;1.13;;;22.50;88.50;;;;;;5106229;28;20038;-92
2023/08/23 05:06:30;;;;;;;1.50;1.30;;;22.50;88.60;;;;;;5099772;28;20048;-91
2023/08/23 05:08:55;;;;;;;2.45;1.10;;;22.60;88.70;;;;;;5096239;28;20387;-90
2023/08/23 05:11:21;;;;;;;0.93;0.70;;;22.60;88.70;;;;;;5095858;28;20112;-91
2023/08/23 05:13:47;;;;;;;2.05;1.27;;;22.60;88.70;;;;;;5096704;28;20035;-91
2023/08/23 05:16:12;;;;;;;2.25;1.35;;;22.60;88.60;;;;;;5097135;28;20047;-91
2023/08/23 05:18:38;;;;;;;1.92;1.17;;;22.60;88.70;;;;;;5096560;28;20028;-91
2023/08/23 05:21:04;;;;;;;1.92;1.08;;;22.60;88.70;;;;;;5095837;28;20028;-87
2023/08/23 05:23:29;;;;;;;1.83;1.10;;;22.50;88.70;;;;;;5096590;28;20039;-91
2023/08/23 05:25:56;;;;;;;1.75;0.90;;;22.60;88.80;;;;;;5097057;28;20043;-90
2023/08/23 05:28:22;;;;;;;2.28;1.23;;;22.60;88.80;;;;;;5096024;28;20112;-90
2023/08/23 05:30:49;;;;;;;3.80;1.00;;;22.70;88.90;;;;;;5096133;28;20476;-85
2023/08/23 05:33:15;;;;;;;3.00;1.65;;;22.70;88.90;;;;;;5092827;28;20060;-86
2023/08/23 05:35:41;;;;;;;1.55;0.90;;;22.70;89.40;;;;;;5095069;28;20140;-84
2023/08/23 05:38:07;;;;;;;1.90;1.10;;;22.70;88.80;;;;;;5093244;28;20031;-85
2023/08/23 05:40:33;;;;;;;1.63;1.27;;;22.80;88.80;;;;;;5093609;28;20028;-85
2023/08/23 05:42:58;;;;;;;1.98;1.33;;;22.80;88.80;;;;;;5092226;28;20458;-85
2023/08/23 05:45:26;;;;;;;1.30;1.05;;;22.80;88.80;;;;;;5093368;28;20033;-84
2023/08/23 05:47:54;;;;;;;3.13;1.13;;;22.80;88.80;;;;;;5093614;28;20028;-85
2023/08/23 05:50:20;;;;;;;4.05;2.28;;;22.70;88.80;;;;;;5094153;28;20108;-84
2023/08/23 05:52:46;;;;;;;1.73;1.05;;;22.80;88.90;;;;;;5092512;28;20053;-86
2023/08/23 05:55:12;;;;;;;2.30;1.48;;;22.80;88.90;;;;;;5093543;28;20024;-87
2023/08/23 05:57:37;;;;;;;3.90;1.60;;;22.70;88.90;;;;;;5092497;28;20032;-84
2023/08/23 06:00:05;;;;;;;1.60;1.40;;;22.80;88.90;;;;;;5093951;28;20028;-85
2023/08/23 06:02:30;;;;;;;2.05;1.63;;;22.90;88.80;;;;;;5093573;28;20067;-86
2023/08/23 06:04:56;;;;;;;5.07;2.95;;;22.90;88.70;;;;;;5093458;28;20453;-86
2023/08/23 06:07:22;;;;;;;2.70;2.08;;;22.90;88.70;;;;;;5092235;28;20032;-86
2023/08/23 06:09:47;;;;;;;5.28;2.72;;;22.90;88.80;;;;;;5093213;28;20035;-87
2023/08/23 06:12:13;;;;;;;4.05;3.10;;;22.90;88.90;;;;;;5092467;28;20124;-86
2023/08/23 06:14:39;;;;;;;3.45;3.15;;;22.90;89.50;;;;;;5093383;28;20032;-87
2023/08/23 06:17:04;;;;;;;4.50;1.85;;;22.90;89.10;;;;;;5092263;28;20035;-84
2023/08/23 06:19:30;;;;;;;4.63;2.90;;;22.90;89.20;;;;;;5091769;28;20085;-86
2023/08/23 06:21:55;;;;;;;3.78;3.40;;;22.80;89.60;;;;;;5093083;28;20471;-87
2023/08/23 06:24:21;;;;;;;4.25;3.20;;;22.80;89.80;;;;;;5091602;28;20036;-87
2023/08/23 06:26:47;;;;;;;7.60;4.95;;;22.80;89.60;;;;;;5092887;28;20399;-86
2023/08/23 06:29:12;;;;;;;4.15;3.70;;;22.80;89.40;;;;;;5091745;28;20059;-86
2023/08/23 06:31:38;;;;;;;6.68;3.50;;;22.80;89.40;;;;;;5092811;28;20081;-86
2023/08/23 06:34:04;;;;;;;3.40;3.10;;;22.70;89.60;;;;;;5092956;28;20086;-86
2023/08/23 06:36:29;;;;;;;5.55;3.65;;;22.70;89.90;;;;;;5092781;28;20384;-86
2023/08/23 06:38:55;;;;;;;3.38;2.85;;;22.70;90.10;;;;;;5092925;28;20031;-85
2023/08/23 06:41:20;;;;;;;3.72;2.20;;;22.70;90.10;;;;;;5092553;28;20051;-86
2023/08/23 06:43:47;;;;;;;7.03;4.70;;;22.70;90.20;;;;;;5092733;28;20388;-86
2023/08/23 06:46:13;;;;;;;6.63;4.20;;;22.70;90.30;;;;;;5091575;28;20075;-86
2023/08/23 06:48:39;;;;;;;4.28;3.08;;;22.70;90.30;;;;;;5091046;28;20024;-80
2023/08/23 06:51:05;;;;;;;4.72;3.35;;;22.80;90.30;;;;;;5095713;28;20032;-88
2023/08/23 06:53:32;;;;;;;9.52;5.65;;;22.80;90.40;;;;;;5096394;28;20460;-85
2023/08/23 06:55:57;;;;;;;3.85;2.72;;;22.80;90.40;;;;;;5095953;28;20068;-86
2023/08/23 06:58:23;;;;;;;7.32;5.20;;;22.80;90.50;;;;;;5095106;28;20480;-86
2023/08/23 07:00:48;;;;;;;4.90;4.22;;;22.80;90.80;;;;;;5095069;28;20041;-87
2023/08/23 07:03:14;;;;;;;4.90;4.00;;;22.80;90.70;;;;;;5095839;28;20085;-86
2023/08/23 07:05:40;;;;;;;2.97;2.30;;;22.90;90.80;;;;;;5096143;28;20059;-86
2023/08/23 07:08:06;;;;;;;5.22;3.25;;;22.90;90.80;;;;;;5095903;28;20029;-85
2023/08/23 07:10:32;;;;;;;6.95;4.40;;;22.90;90.60;;;;;;5095311;28;20020;-86
2023/08/23 07:12:57;;;;;;;3.08;2.58;;;23.10;90.40;;;;;;5096352;28;20052;-85
2023/08/23 07:15:23;;;;;;;7.97;4.20;;;23.00;90.30;;;;;;5096028;28;20094;-85
2023/08/23 07:17:49;;;;;;;5.25;4.10;;;23.10;90.20;;;;;;5095913;28;20036;-85
2023/08/23 07:20:15;;;;;;;5.43;3.67;;;23.20;90.20;;;;;;5094644;28;20036;-87
2023/08/23 07:22:42;;;;;;;4.03;3.17;;;23.20;90.10;;;;;;5095909;28;20028;-85
2023/08/23 07:25:08;;;;;;;4.68;3.28;;;23.30;89.90;;;;;;5095406;28;20555;-86
2023/08/23 07:27:33;;;;;;;6.40;4.95;;;23.40;89.60;;;;;;5095644;28;20051;-86
2023/08/23 07:30:00;;;;;;;5.50;4.60;;;23.50;89.20;;;;;;5094639;28;20070;-86
2023/08/23 07:32:30;;;;;;;5.35;2.78;;;23.50;89.40;;;;;;5077792;28;20028;-86
2023/08/23 07:34:56;;;;;;;8.35;4.05;;;23.50;89.30;;;;;;5094209;28;20039;-85
2023/08/23 07:37:22;;;;;;;4.70;2.88;;;23.50;89.30;;;;;;5095610;28;20043;-86
2023/08/23 07:39:48;;;;;;;3.30;2.03;;;23.60;89.20;;;;;;5095752;28;20060;-89
2023/08/23 07:42:14;;;;;;;10.45;5.32;;;23.60;88.80;;;;;;5094580;28;20070;-89
2023/08/23 07:44:39;;;;;;;7.25;4.10;;;23.60;88.50;;;;;;5095810;28;20392;-90
2023/08/23 07:47:05;;;;;;;6.95;4.35;;;23.50;87.80;;;;;;5094530;28;20147;-91
2023/08/23 07:49:31;;;;;;;4.93;3.00;;;23.50;86.90;;;;;;5095708;28;20059;-88
2023/08/23 07:51:57;;;;;;;4.18;3.17;;;23.40;87.00;;;;;;5095647;28;20119;-86
2023/08/23 07:54:23;;;;;;;6.43;3.35;;;23.40;87.10;;;;;;5095177;28;20031;-88
2023/08/23 07:56:48;;;;;;;3.42;2.60;;;23.40;88.40;;;;;;5095163;28;20032;-88
2023/08/23 07:59:14;;;;;;;4.75;2.50;;;23.50;87.90;;;;;;5095138;28;20047;-87
2023/08/23 08:01:39;;;;;;;6.22;4.25;;;23.60;87.00;;;;;;5093918;28;20103;-88
2023/08/23 08:04:05;;;;;;;5.60;2.55;;;23.70;86.30;;;;;;5094521;28;20032;-86
2023/08/23 08:06:31;;;;;;;6.03;2.97;;;23.70;86.10;;;;;;5094417;28;20538;-85
2023/08/23 08:08:56;;;;;;;7.63;4.20;;;23.70;86.50;;;;;;5093594;28;20028;-85
2023/08/23 08:11:22;;;;;;;6.72;3.80;;;23.70;86.60;;;;;;5093181;28;20392;-85
2023/08/23 08:13:48;;;;;;;4.30;3.42;;;23.70;86.80;;;;;;5093566;28;20452;-86
2023/08/23 08:16:14;;;;;;;4.47;3.35;;;23.80;86.80;;;;;;5094816;28;20036;-86
2023/08/23 08:18:40;;;;;;;5.10;3.95;;;23.80;86.60;;;;;;5094611;28;20025;-85
2023/08/23 08:21:06;;;;;;;9.18;3.67;;;23.90;86.40;;;;;;5094793;28;20131;-86
2023/08/23 08:23:32;;;;;;;3.50;2.53;;;23.90;86.00;;;;;;5094707;28;20139;-86
2023/08/23 08:25:58;;;;;;;7.18;4.15;;;23.90;85.70;;;;;;5093463;28;20362;-86
2023/08/23 08:28:24;;;;;;;6.80;4.07;;;24.00;85.80;;;;;;5093362;28;20051;-85
2023/08/23 08:30:50;;;;;;;6.63;3.63;;;24.00;86.00;;;;;;5093433;28;20032;-86
2023/08/23 08:33:17;;;;;;;7.10;4.85;;;24.00;85.70;;;;;;5094289;28;20024;-84
2023/08/23 08:35:43;;;;;;;7.72;4.03;;;24.10;85.40;;;;;;5093140;28;20490;-85
2023/08/23 08:38:09;;;;;;;10.35;4.88;;;24.10;85.60;;;;;;5092786;28;20127;-85
2023/08/23 08:40:39;;;;;;;7.03;4.05;;;24.20;85.80;;;;;;5094192;28;20051;-86
2023/08/23 08:43:06;;;;;;;5.03;3.78;;;24.20;84.90;;;;;;5076014;28;20400;-86
2023/08/23 08:45:32;;;;;;;5.05;2.58;;;24.30;84.80;;;;;;5094314;28;20123;-87
2023/08/23 08:47:58;;;;;;;5.47;3.30;;;24.30;84.30;;;;;;5094089;28;20361;-87
2023/08/23 08:50:26;;;;;;;6.65;3.10;;;24.40;84.30;;;;;;5093951;28;20032;-85
2023/08/23 08:52:53;;;;;;;5.57;3.38;;;24.50;84.00;;;;;;5093965;28;20487;-86
2023/08/23 08:55:21;;;;;;;6.43;3.35;;;24.50;82.80;;;;;;5094570;28;20036;-87
2023/08/23 08:57:49;;;;;;;6.32;4.05;;;24.60;82.60;;;;;;5094097;28;20104;-87
2023/08/23 09:00:15;;;;;;;5.13;3.47;;;24.60;81.80;;;;;;5094000;28;20028;-85
2023/08/23 09:02:44;;;;;;;6.60;3.55;;;24.60;81.90;;;;;;5094257;28;20028;-86
2023/08/23 09:05:10;;;;;;;5.63;3.10;;;24.70;81.80;;;;;;5094054;28;20379;-86
2023/08/23 09:07:37;;;;;;;6.50;2.80;;;24.70;81.90;;;;;;5094071;28;20107;-86
2023/08/23 09:10:03;;;;;;;7.97;3.55;;;24.80;81.20;;;;;;5093683;28;20036;-86
2023/08/23 09:12:29;;;;;;;5.25;3.58;;;24.90;81.00;;;;;;5092283;28;20438;-87
2023/08/23 09:14:56;;;;;;;6.30;2.92;;;24.90;81.30;;;;;;5093918;28;20147;-86
2023/08/23 09:17:22;;;;;;;3.38;1.88;;;25.00;81.80;;;;;;5093731;28;20114;-86
2023/08/23 09:19:49;;;;;;;5.70;3.05;;;25.00;81.10;;;;;;5093839;28;20035;-87
2023/08/23 09:22:20;;;;;;;5.95;2.63;;;25.20;80.60;;;;;;5092797;28;20032;-86
2023/08/23 09:24:46;;;;;;;4.53;2.20;;;25.30;80.50;;;;;;5076082;28;20415;-85
2023/08/23 09:27:12;;;;;;;6.93;3.67;;;25.40;80.60;;;;;;5092500;28;20047;-85
2023/08/23 09:29:38;;;;;;;6.50;3.08;;;25.50;79.20;;;;;;5092306;28;20050;-84
2023/08/23 09:32:07;;;;;;;7.82;3.30;;;25.50;78.80;;;;;;5094291;28;20475;-84
2023/08/23 09:34:33;;;;;;;5.43;3.47;;;25.60;79.40;;;;;;5092421;28;20043;-85
2023/08/23 09:37:08;;;;;;;4.45;3.00;;;25.70;78.90;;;;;;5092405;28;20036;-84
2023/08/23 09:39:34;;;;;;;6.90;3.55;;;25.70;78.70;;;;;;5094208;28;20028;-85
2023/08/23 09:42:05;;;;;;;8.77;2.70;;;25.70;77.70;;;;;;5092950;28;20032;-85
2023/08/23 09:44:38;;;;;;;4.03;1.98;;;25.80;78.00;;;;;;5093659;28;20040;-85
2023/08/23 09:47:08;;;;;;;4.05;1.55;;;25.90;77.50;;;;;;5094051;28;20145;-84
2023/08/23 09:49:34;;;;;;;2.83;1.48;;;25.90;76.30;;;;;;5093167;28;20120;-85
2023/08/23 09:52:01;;;;;;;2.75;1.30;;;26.10;75.70;;;;;;5093305;28;20111;-85
2023/08/23 09:54:40;;;;;;;3.42;1.30;;;26.10;75.20;;;;;;5093411;28;20038;-86
2023/08/23 09:57:06;;;;;;;3.35;1.55;;;26.30;76.00;;;;;;5093489;28;20028;-86
2023/08/23 09:59:33;;;;;;;3.67;1.52;;;26.50;76.20;;;;;;5091928;28;20028;-85
2023/08/23 10:02:01;;;;;;;2.03;1.20;;;26.60;77.30;;;;;;5093983;28;20116;-85
2023/08/23 10:04:28;;;;;;;2.65;2.00;;;26.70;75.60;;;;;;5092856;28;20036;-85
2023/08/23 10:06:54;;;;;;;4.72;2.47;;;26.80;74.20;;;;;;5092109;28;20118;-85
2023/08/23 10:09:21;;;;;;;12.95;4.18;;;26.80;73.80;;;;;;5093276;28;20024;-85
2023/08/23 10:11:48;;;;;;;5.70;2.22;;;26.90;73.90;;;;;;5092445;28;20044;-86
2023/08/23 10:14:15;;;;;;;6.78;2.38;;;26.90;74.30;;;;;;5092979;28;20048;-84
2023/08/23 10:16:42;;;;;;;3.63;2.03;;;27.00;74.00;;;;;;5074943;28;20055;-85
2023/08/23 10:19:09;;;;;;;3.45;1.50;;;27.00;73.20;;;;;;5092127;28;20434;-85
2023/08/23 10:21:34;;;;;;;5.82;1.75;;;27.10;73.10;;;;;;5093170;28;20032;-85
2023/08/23 10:24:04;;;;;;;5.32;2.08;;;27.10;72.90;;;;;;5093378;28;20036;-86
2023/08/23 10:26:43;;;;;;;2.60;1.30;;;27.20;72.70;;;;;;5097981;28;20097;-88
2023/08/23 10:29:09;;;;;;;2.40;1.08;;;27.20;72.60;;;;;;5097098;28;20020;-86
2023/08/23 10:31:35;;;;;;;4.20;1.10;;;27.40;73.80;;;;;;5097295;28;20032;-84
2023/08/23 10:34:01;;;;;;;2.80;1.05;;;27.50;72.10;;;;;;5095647;28;20028;-85
2023/08/23 10:36:30;;;;;;;2.80;1.25;;;27.60;71.20;;;;;;5095975;28;20032;-85
2023/08/23 10:38:57;;;;;;;1.70;0.80;;;27.60;70.80;;;;;;5096793;28;20024;-85
2023/08/23 10:41:25;;;;;;;5.43;1.00;;;27.60;70.10;;;;;;5096299;28;20037;-86
2023/08/23 10:43:52;;;;;;;4.47;0.60;;;27.60;69.50;;;;;;5096892;28;20040;-85
2023/08/23 10:46:19;;;;;;;3.53;0.82;;;27.60;69.00;;;;;;5095785;28;20032;-85
2023/08/23 10:48:46;;;;;;;3.40;0.47;;;27.70;69.60;;;;;;5096534;28;20024;-85
2023/08/23 10:51:12;;;;;;;2.45;0.90;;;27.70;67.50;;;;;;5096491;28;20492;-84
2023/08/23 10:53:40;;;;;;;2.60;1.00;;;27.70;67.60;;;;;;5096547;28;20034;-84
2023/08/23 10:56:07;;;;;;;1.75;0.70;;;27.80;67.80;;;;;;5096578;28;20028;-85
2023/08/23 10:58:33;;;;;;;2.15;0.68;;;27.80;67.10;;;;;;5096493;28;20036;-86
2023/08/23 11:00:59;;;;;;;3.65;0.70;;;27.80;67.50;;;;;;5097174;28;20032;-85
2023/08/23 11:03:28;;;;;;;2.50;0.57;;;27.90;67.10;;;;;;5094828;28;20040;-86
2023/08/23 11:05:54;;;;;;;3.97;0.60;;;28.00;67.30;;;;;;5096341;28;20031;-85
2023/08/23 11:08:22;;;;;;;3.42;0.77;;;28.00;66.70;;;;;;5096030;28;20479;-86
2023/08/23 11:10:48;;;;;;;2.58;0.90;;;28.00;66.10;;;;;;5095898;28;20032;-85
2023/08/23 11:13:13;;;;;;;7.47;0.80;;;28.00;66.00;;;;;;5102680;28;20032;-89
2023/08/23 11:15:41;;;;;;;2.15;0.95;;;28.00;65.80;;;;;;5102557;28;20059;-92
2023/08/23 11:18:07;;;;;;;2.25;0.73;;;28.00;66.00;;;;;;5103440;28;20036;-91
2023/08/23 11:20:33;;;;;;;2.95;0.60;;;28.10;65.70;;;;;;5100993;28;20025;-89
2023/08/23 11:22:58;;;;;;;1.95;0.85;;;28.20;64.80;;;;;;5104138;28;20027;-90
2023/08/23 11:25:24;;;;;;;1.45;0.45;;;28.20;64.10;;;;;;5101039;28;20044;-91
2023/08/23 11:27:51;;;;;;;3.80;0.40;;;28.30;66.40;;;;;;5099215;28;20028;-93
2023/08/23 11:30:20;;;;;;;2.85;0.57;;;28.40;66.00;;;;;;5102266;28;20032;-91
2023/08/23 11:32:46;;;;;;;2.25;0.50;;;28.50;66.00;;;;;;5100701;28;20032;-92
2023/08/23 11:35:12;;;;;;;3.63;0.45;;;28.60;65.60;;;;;;5098866;28;20383;-92
2023/08/23 11:37:38;;;;;;;3.67;0.60;;;28.70;65.70;;;;;;5099847;28;20032;-90
2023/08/23 11:40:13;;;;;;;2.92;0.40;;;28.70;64.10;;;;;;5105151;28;20108;-91
2023/08/23 11:42:39;;;;;;;2.00;0.50;;;28.60;63.10;;;;;;5104275;28;20052;-91
2023/08/23 11:45:06;;;;;;;1.73;0.38;;;28.60;62.90;;;;;;5100784;28;20384;-91
2023/08/23 11:47:34;;;;;;;2.40;0.40;;;28.60;63.30;;;;;;5101272;28;20387;-94
2023/08/23 11:50:00;;;;;;;4.10;0.32;;;28.60;63.40;;;;;;5101281;28;20093;-92
2023/08/23 11:52:29;;;;;;;1.65;0.38;;;28.70;63.30;;;;;;5104503;28;20024;-94
2023/08/23 11:54:54;;;;;;;2.05;0.40;;;28.80;63.10;;;;;;5102209;28;20063;-91
2023/08/23 11:57:21;;;;;;;2.17;0.47;;;28.90;62.50;;;;;;5099152;28;20453;-89
2023/08/23 11:59:47;;;;;;;1.90;0.73;;;28.90;62.40;;;;;;5097472;28;20028;-89
2023/08/23 12:02:13;;;;;;;1.55;0.43;;;28.90;63.20;;;;;;5095576;28;20112;-89
2023/08/23 12:04:42;;;;;;;1.63;0.60;;;28.90;63.60;;;;;;5095414;28;20123;-90
2023/08/23 12:07:12;;;;;;;1.15;0.40;;;28.90;62.40;;;;;;5100987;28;20028;-91
2023/08/23 12:09:39;;;;;;;2.30;0.50;;;28.90;62.80;;;;;;5099508;28;20071;-94
2023/08/23 12:12:05;;;;;;;1.75;0.30;;;28.80;62.90;;;;;;5097240;28;20039;-94
2023/08/23 12:14:31;;;;;;;2.20;0.50;;;29.00;64.00;;;;;;5097105;28;20040;-92
2023/08/23 12:16:56;;;;;;;4.15;0.90;;;29.10;63.50;;;;;;5097441;28;20113;-92
2023/08/23 12:19:22;;;;;;;2.17;0.60;;;29.10;62.40;;;;;;5100076;28;20028;-95
2023/08/23 12:21:49;;;;;;;1.95;0.43;;;29.10;62.50;;;;;;5104185;28;20058;-92
2023/08/23 12:24:15;;;;;;;1.50;0.50;;;29.10;63.30;;;;;;5100282;28;20035;-93
2023/08/23 12:26:41;;;;;;;1.40;0.40;;;29.30;63.60;;;;;;5098507;28;20036;-92
2023/08/23 12:29:06;;;;;;;2.45;0.45;;;29.30;64.30;;;;;;5100822;28;20028;-89
2023/08/23 12:31:32;;;;;;;3.15;0.52;;;29.30;63.70;;;;;;5102413;28;20040;-93
2023/08/23 12:33:58;;;;;;;2.55;0.52;;;29.40;63.30;;;;;;5098601;28;20043;-90
2023/08/23 12:36:25;;;;;;;4.03;0.63;;;29.50;62.80;;;;;;5104740;28;20039;-94
2023/08/23 12:38:52;;;;;;;1.13;0.43;;;29.50;63.00;;;;;;5101097;28;20564;-93
2023/08/23 12:41:17;;;;;;;1.50;0.47;;;29.50;62.40;;;;;;5100972;28;20020;-94